DAL2278 KMSP-KFAR
Flight info
| Callsign | DAL2278 |
|---|---|
| Flight time | N/A |
| Altitude | 29000 |
| Route | KBREW2 FAR |
| Aircraft | B738/M-SDE2E3FGHIRWXY/LB1 |
Departure
| Time | 2026-05-05 03:32 |
|---|---|
| Airport | Minneapolis–Saint Paul International Airport / Wold–Chamberlain Field (KMSP) |
Arrival
| Time | N/A |
|---|---|
| Airport | Hector International Airport (KFAR) |
| Time | Latitude | Longitude | Altitude | Speed | Heading |
|---|---|---|---|---|---|
| 2026-05-05 02:57 | 44.88432 | -93.20781 | 824 ft | 0 kts | 210° |
| 2026-05-05 03:21 | 44.88442 | -93.20773 | 824 ft | 4 kts | 209° |
| 2026-05-05 03:21 | 44.88465 | -93.20754 | 823 ft | 4 kts | 206° |
| 2026-05-05 03:21 | 44.88490 | -93.20744 | 821 ft | 4 kts | 173° |
| 2026-05-05 03:21 | 44.88512 | -93.20758 | 822 ft | 4 kts | 127° |
| 2026-05-05 03:22 | 44.88516 | -93.20764 | 822 ft | 1 kts | 121° |
| 2026-05-05 03:26 | 44.88515 | -93.20763 | 824 ft | 1 kts | 121° |
| 2026-05-05 03:27 | 44.88505 | -93.20728 | 824 ft | 5 kts | 95° |
| 2026-05-05 03:27 | 44.88515 | -93.20678 | 824 ft | 5 kts | 72° |
| 2026-05-05 03:27 | 44.88520 | -93.20619 | 824 ft | 7 kts | 96° |
| 2026-05-05 03:27 | 44.88488 | -93.20530 | 824 ft | 12 kts | 120° |
| 2026-05-05 03:28 | 44.88441 | -93.20419 | 822 ft | 14 kts | 123° |
| 2026-05-05 03:28 | 44.88388 | -93.20300 | 824 ft | 15 kts | 121° |
| 2026-05-05 03:28 | 44.88334 | -93.20174 | 824 ft | 15 kts | 121° |
| 2026-05-05 03:28 | 44.88275 | -93.20039 | 824 ft | 17 kts | 121° |
| 2026-05-05 03:29 | 44.88218 | -93.19906 | 824 ft | 16 kts | 121° |
| 2026-05-05 03:29 | 44.88158 | -93.19769 | 824 ft | 17 kts | 121° |
| 2026-05-05 03:29 | 44.88117 | -93.19673 | 821 ft | 9 kts | 121° |
| 2026-05-05 03:29 | 44.88082 | -93.19592 | 822 ft | 10 kts | 121° |
| 2026-05-05 03:30 | 44.88058 | -93.19512 | 824 ft | 9 kts | 95° |
| 2026-05-05 03:30 | 44.88093 | -93.19452 | 824 ft | 8 kts | 28° |
| 2026-05-05 03:30 | 44.88131 | -93.19428 | 822 ft | 5 kts | 360° |
| 2026-05-05 03:30 | 44.88154 | -93.19463 | 824 ft | 5 kts | 303° |
| 2026-05-05 03:31 | 44.88182 | -93.19529 | 822 ft | 13 kts | 300° |
| 2026-05-05 03:31 | 44.88332 | -93.19874 | 824 ft | 76 kts | 301° |
| 2026-05-05 03:31 | 44.88723 | -93.20773 | 822 ft | 137 kts | 301° |
| 2026-05-05 03:31 | 44.89275 | -93.22069 | 1106 ft | 163 kts | 299° |
| 2026-05-05 03:32 | 44.89822 | -93.23431 | 2082 ft | 152 kts | 300° |
| 2026-05-05 03:32 | 44.90282 | -93.24697 | 3113 ft | 144 kts | 300° |
| 2026-05-05 03:32 | 44.90809 | -93.26060 | 3476 ft | 174 kts | 301° |
| 2026-05-05 03:32 | 44.91448 | -93.27662 | 3733 ft | 200 kts | 301° |
| 2026-05-05 03:33 | 44.92169 | -93.29441 | 4102 ft | 215 kts | 301° |
| 2026-05-05 03:33 | 44.92929 | -93.31297 | 4717 ft | 222 kts | 301° |
| 2026-05-05 03:33 | 44.93730 | -93.33230 | 5107 ft | 238 kts | 301° |
| 2026-05-05 03:33 | 44.94584 | -93.35270 | 5915 ft | 242 kts | 301° |
| 2026-05-05 03:34 | 44.95438 | -93.37299 | 6963 ft | 237 kts | 301° |
| 2026-05-05 03:34 | 44.96295 | -93.39308 | 7825 ft | 241 kts | 301° |
| 2026-05-05 03:34 | 44.97171 | -93.41344 | 8662 ft | 244 kts | 301° |
| 2026-05-05 03:34 | 44.98065 | -93.43405 | 9531 ft | 247 kts | 301° |
| 2026-05-05 03:35 | 44.98977 | -93.45484 | 10288 ft | 252 kts | 301° |
| 2026-05-05 03:35 | 44.99950 | -93.47685 | 10553 ft | 276 kts | 301° |
| 2026-05-05 03:35 | 45.01013 | -93.50074 | 10747 ft | 300 kts | 301° |
| 2026-05-05 03:35 | 45.02254 | -93.52580 | 10938 ft | 322 kts | 305° |
| 2026-05-05 03:36 | 45.03643 | -93.55091 | 11411 ft | 333 kts | 306° |
| 2026-05-05 03:36 | 45.05111 | -93.57681 | 12097 ft | 338 kts | 306° |
| 2026-05-05 03:36 | 45.06587 | -93.60286 | 12835 ft | 341 kts | 306° |
| 2026-05-05 03:36 | 45.08071 | -93.62926 | 13542 ft | 345 kts | 306° |
| 2026-05-05 03:37 | 45.09568 | -93.65608 | 14220 ft | 347 kts | 304° |
| 2026-05-05 03:37 | 45.11054 | -93.68287 | 15056 ft | 344 kts | 304° |
| 2026-05-05 03:37 | 45.12524 | -93.70950 | 15905 ft | 342 kts | 303° |
| 2026-05-05 03:37 | 45.13982 | -93.73602 | 16722 ft | 342 kts | 303° |
| 2026-05-05 03:38 | 45.15427 | -93.76239 | 17422 ft | 344 kts | 302° |
| 2026-05-05 03:38 | 45.16898 | -93.78932 | 17991 ft | 348 kts | 302° |
| 2026-05-05 03:38 | 45.18384 | -93.81656 | 18580 ft | 349 kts | 302° |
| 2026-05-05 03:38 | 45.19868 | -93.84377 | 19235 ft | 348 kts | 301° |
| 2026-05-05 03:39 | 45.21347 | -93.87088 | 19884 ft | 347 kts | 301° |
| 2026-05-05 03:39 | 45.22824 | -93.89801 | 20514 ft | 347 kts | 301° |
| 2026-05-05 03:39 | 45.24295 | -93.92506 | 21103 ft | 347 kts | 300° |
| 2026-05-05 03:39 | 45.25773 | -93.95228 | 21683 ft | 347 kts | 300° |
| 2026-05-05 03:40 | 45.27244 | -93.97940 | 22304 ft | 346 kts | 300° |
| 2026-05-05 03:40 | 45.28708 | -94.00635 | 23074 ft | 341 kts | 300° |
| 2026-05-05 03:40 | 45.30151 | -94.03296 | 23650 ft | 340 kts | 299° |
| 2026-05-05 03:40 | 45.31600 | -94.05977 | 23842 ft | 343 kts | 300° |
| 2026-05-05 03:41 | 45.33062 | -94.08685 | 23828 ft | 346 kts | 300° |
| 2026-05-05 03:41 | 45.34506 | -94.11362 | 23833 ft | 345 kts | 300° |
| 2026-05-05 03:41 | 45.35964 | -94.14064 | 23825 ft | 344 kts | 300° |
| 2026-05-05 03:41 | 45.37434 | -94.16799 | 23818 ft | 353 kts | 300° |
| 2026-05-05 03:42 | 45.38943 | -94.19612 | 23826 ft | 361 kts | 300° |
| 2026-05-05 03:42 | 45.40483 | -94.22483 | 23820 ft | 367 kts | 300° |
| 2026-05-05 03:42 | 45.42038 | -94.25376 | 23809 ft | 367 kts | 300° |
| 2026-05-05 03:42 | 45.43589 | -94.28259 | 23803 ft | 366 kts | 300° |
| 2026-05-05 03:43 | 45.45135 | -94.31136 | 23809 ft | 365 kts | 300° |
| 2026-05-05 03:43 | 45.46673 | -94.34001 | 23805 ft | 364 kts | 300° |
| 2026-05-05 03:43 | 45.48210 | -94.36868 | 23804 ft | 363 kts | 300° |
| 2026-05-05 03:43 | 45.49716 | -94.39684 | 23856 ft | 362 kts | 300° |
| 2026-05-05 03:44 | 45.51258 | -94.42576 | 23827 ft | 370 kts | 301° |
| 2026-05-05 03:44 | 45.52828 | -94.45526 | 23827 ft | 375 kts | 301° |
| 2026-05-05 03:44 | 45.54409 | -94.48494 | 23823 ft | 375 kts | 301° |
| 2026-05-05 03:44 | 45.55984 | -94.51448 | 23824 ft | 373 kts | 301° |
| 2026-05-05 03:45 | 45.57553 | -94.54393 | 23824 ft | 373 kts | 301° |
| 2026-05-05 03:45 | 45.59117 | -94.57335 | 23828 ft | 372 kts | 301° |
| 2026-05-05 03:45 | 45.60690 | -94.60297 | 23825 ft | 372 kts | 301° |
| 2026-05-05 03:45 | 45.62253 | -94.63243 | 23829 ft | 372 kts | 301° |
| 2026-05-05 03:46 | 45.63798 | -94.66161 | 23831 ft | 372 kts | 301° |
| 2026-05-05 03:46 | 45.65358 | -94.69110 | 23830 ft | 373 kts | 301° |
| 2026-05-05 03:46 | 45.66921 | -94.72067 | 23831 ft | 373 kts | 301° |
| 2026-05-05 03:46 | 45.68485 | -94.75031 | 23847 ft | 375 kts | 302° |
| 2026-05-05 03:47 | 45.70075 | -94.78052 | 23846 ft | 384 kts | 302° |
| 2026-05-05 03:47 | 45.71696 | -94.81134 | 23837 ft | 388 kts | 302° |
| 2026-05-05 03:47 | 45.73319 | -94.84216 | 23825 ft | 386 kts | 302° |
| 2026-05-05 03:47 | 45.74937 | -94.87290 | 23823 ft | 385 kts | 302° |
| 2026-05-05 03:48 | 45.76545 | -94.90347 | 23829 ft | 384 kts | 302° |
| 2026-05-05 03:48 | 45.78150 | -94.93404 | 23833 ft | 384 kts | 302° |
| 2026-05-05 03:48 | 45.79752 | -94.96461 | 23827 ft | 384 kts | 302° |
| 2026-05-05 03:48 | 45.81337 | -94.99488 | 23831 ft | 384 kts | 302° |
| 2026-05-05 03:49 | 45.82939 | -95.02554 | 23829 ft | 384 kts | 302° |
| 2026-05-05 03:49 | 45.84541 | -95.05621 | 23826 ft | 385 kts | 302° |
| 2026-05-05 03:49 | 45.86148 | -95.08702 | 23858 ft | 385 kts | 303° |
| 2026-05-05 03:49 | 45.87771 | -95.11819 | 23837 ft | 394 kts | 303° |
| 2026-05-05 03:50 | 45.89425 | -95.15003 | 23827 ft | 402 kts | 304° |
| 2026-05-05 03:50 | 45.91105 | -95.18234 | 23825 ft | 404 kts | 304° |
| 2026-05-05 03:50 | 45.92788 | -95.21471 | 23821 ft | 403 kts | 304° |
| 2026-05-05 03:50 | 45.94466 | -95.24702 | 23822 ft | 403 kts | 304° |
| 2026-05-05 03:51 | 45.95982 | -95.27626 | 23827 ft | 403 kts | 304° |
| 2026-05-05 03:51 | 45.97634 | -95.30815 | 23826 ft | 402 kts | 304° |
| 2026-05-05 03:51 | 45.99302 | -95.34039 | 23824 ft | 402 kts | 303° |
| 2026-05-05 03:51 | 46.00965 | -95.37257 | 23822 ft | 399 kts | 303° |
| 2026-05-05 03:52 | 46.02582 | -95.40386 | 23812 ft | 380 kts | 303° |
| 2026-05-05 03:52 | 46.04123 | -95.43368 | 23831 ft | 362 kts | 304° |
| 2026-05-05 03:52 | 46.05595 | -95.46221 | 23815 ft | 347 kts | 304° |
| 2026-05-05 03:52 | 46.07019 | -95.48990 | 23549 ft | 342 kts | 304° |
| 2026-05-05 03:53 | 46.08422 | -95.51722 | 23205 ft | 338 kts | 304° |
| 2026-05-05 03:53 | 46.09813 | -95.54436 | 22796 ft | 334 kts | 304° |
| 2026-05-05 03:53 | 46.11186 | -95.57116 | 22348 ft | 330 kts | 304° |
| 2026-05-05 03:53 | 46.12544 | -95.59769 | 21943 ft | 326 kts | 304° |
| 2026-05-05 03:54 | 46.13884 | -95.62389 | 21521 ft | 324 kts | 304° |
| 2026-05-05 03:54 | 46.15214 | -95.64990 | 21119 ft | 320 kts | 304° |
| 2026-05-05 03:54 | 46.16531 | -95.67569 | 20705 ft | 318 kts | 304° |
| 2026-05-05 03:54 | 46.17835 | -95.70123 | 20301 ft | 315 kts | 304° |
| 2026-05-05 03:55 | 46.19114 | -95.72631 | 19896 ft | 313 kts | 304° |
| 2026-05-05 03:55 | 46.20400 | -95.75155 | 19520 ft | 310 kts | 304° |
| 2026-05-05 03:55 | 46.21672 | -95.77656 | 19132 ft | 308 kts | 304° |
| 2026-05-05 03:55 | 46.22935 | -95.80139 | 18765 ft | 305 kts | 303° |
| 2026-05-05 03:56 | 46.24190 | -95.82609 | 18366 ft | 304 kts | 303° |
| 2026-05-05 03:56 | 46.25437 | -95.85065 | 17955 ft | 302 kts | 303° |
| 2026-05-05 03:56 | 46.26672 | -95.87500 | 17523 ft | 299 kts | 304° |
| 2026-05-05 03:56 | 46.27897 | -95.89918 | 17175 ft | 295 kts | 304° |
| 2026-05-05 03:57 | 46.29082 | -95.92255 | 16883 ft | 290 kts | 304° |
| 2026-05-05 03:57 | 46.29887 | -95.93847 | 16553 ft | 292 kts | 304° |
| 2026-05-05 03:57 | 46.31482 | -95.97005 | 16009 ft | 296 kts | 304° |
| 2026-05-05 03:57 | 46.32704 | -95.99426 | 15592 ft | 300 kts | 304° |
| 2026-05-05 03:58 | 46.33541 | -96.01086 | 15328 ft | 304 kts | 304° |
| 2026-05-05 03:58 | 46.35194 | -96.04366 | 14943 ft | 301 kts | 304° |
| 2026-05-05 03:58 | 46.36010 | -96.05983 | 14692 ft | 298 kts | 304° |
| 2026-05-05 03:58 | 46.37223 | -96.08390 | 14328 ft | 295 kts | 304° |
| 2026-05-05 03:59 | 46.38428 | -96.10784 | 13944 ft | 293 kts | 304° |
| 2026-05-05 03:59 | 46.39625 | -96.13166 | 13503 ft | 292 kts | 304° |
| 2026-05-05 03:59 | 46.40819 | -96.15545 | 13022 ft | 292 kts | 304° |
| 2026-05-05 03:59 | 46.42010 | -96.17919 | 12584 ft | 291 kts | 304° |
| 2026-05-05 04:00 | 46.43197 | -96.20286 | 12145 ft | 289 kts | 305° |
| 2026-05-05 04:00 | 46.44375 | -96.22638 | 11746 ft | 287 kts | 305° |
| 2026-05-05 04:00 | 46.45547 | -96.24980 | 11318 ft | 287 kts | 305° |
| 2026-05-05 04:00 | 46.46719 | -96.27324 | 10887 ft | 286 kts | 305° |
| 2026-05-05 04:01 | 46.47883 | -96.29652 | 10481 ft | 285 kts | 305° |
| 2026-05-05 04:01 | 46.49037 | -96.31965 | 10232 ft | 280 kts | 305° |
| 2026-05-05 04:01 | 46.50169 | -96.34235 | 9965 ft | 275 kts | 306° |
| 2026-05-05 04:01 | 46.51284 | -96.36472 | 9701 ft | 272 kts | 306° |
| 2026-05-05 04:02 | 46.52379 | -96.38670 | 9266 ft | 272 kts | 306° |
| 2026-05-05 04:02 | 46.53487 | -96.40897 | 8872 ft | 271 kts | 306° |
| 2026-05-05 04:02 | 46.54593 | -96.43120 | 8469 ft | 271 kts | 306° |
| 2026-05-05 04:02 | 46.55693 | -96.45334 | 8071 ft | 270 kts | 306° |
| 2026-05-05 04:03 | 46.56792 | -96.47549 | 7657 ft | 270 kts | 305° |
| 2026-05-05 04:03 | 46.57887 | -96.49757 | 7263 ft | 269 kts | 305° |
| 2026-05-05 04:03 | 46.58987 | -96.51976 | 6878 ft | 269 kts | 305° |
| 2026-05-05 04:03 | 46.60067 | -96.54156 | 6502 ft | 269 kts | 305° |
| 2026-05-05 04:04 | 46.61158 | -96.56361 | 6127 ft | 269 kts | 305° |
| 2026-05-05 04:04 | 46.62251 | -96.58572 | 5727 ft | 269 kts | 306° |
| 2026-05-05 04:04 | 46.63342 | -96.60783 | 5334 ft | 269 kts | 306° |
| 2026-05-05 04:04 | 46.64420 | -96.62987 | 4932 ft | 266 kts | 306° |
| 2026-05-05 04:05 | 46.65490 | -96.65193 | 4414 ft | 266 kts | 306° |
| 2026-05-05 04:05 | 46.66528 | -96.67358 | 4159 ft | 256 kts | 306° |
| 2026-05-05 04:05 | 46.67527 | -96.69464 | 3885 ft | 251 kts | 306° |
| 2026-05-05 04:05 | 46.68508 | -96.71548 | 3623 ft | 248 kts | 306° |
| 2026-05-05 04:06 | 46.69472 | -96.73610 | 3358 ft | 245 kts | 306° |
| 2026-05-05 04:06 | 46.70422 | -96.75653 | 3113 ft | 242 kts | 306° |
| 2026-05-05 04:06 | 46.71113 | -96.76887 | 3028 ft | 235 kts | 321° |